Time;durP1;ratioP1;P1;durP2;ratioP2;P2;SDS_P1;SDS_P2;PMS_P1;PMS_P2;Temp;Humidity;BMP_temperature;BMP_pressure;BME280_temperature;BME280_humidity;BME280_pressure;Samples;Min_cycle;Max_cycle;Signal;HPM_P1;HPM_P2
2023/06/11 00:00:42;;;;;;;10.77;5.07;;;16.50;99.90;;;;;;4129625;28;20065;-62
2023/06/11 00:02:43;;;;;;;10.65;4.90;;;16.50;99.90;;;;;;4129141;28;20042;-61
2023/06/11 00:04:45;;;;;;;6.75;4.47;;;16.40;99.90;;;;;;4130241;28;20026;-62
2023/06/11 00:06:46;;;;;;;9.10;4.55;;;16.40;99.90;;;;;;4143141;28;20080;-62
2023/06/11 00:08:51;;;;;;;7.90;4.55;;;16.30;99.90;;;;;;4129428;28;20047;-62
2023/06/11 00:10:52;;;;;;;8.02;4.90;;;16.30;99.90;;;;;;4129123;28;20038;-62
2023/06/11 00:12:54;;;;;;;6.60;5.22;;;16.20;99.90;;;;;;4130268;28;20483;-66
2023/06/11 00:14:55;;;;;;;7.93;4.90;;;16.10;99.90;;;;;;4129047;28;20088;-62
2023/06/11 00:16:56;;;;;;;9.75;4.82;;;16.10;99.90;;;;;;4129935;28;20026;-62
2023/06/11 00:18:58;;;;;;;5.63;4.45;;;16.00;99.90;;;;;;4128815;28;20418;-63
2023/06/11 00:20:59;;;;;;;5.18;4.22;;;16.00;99.90;;;;;;4129745;28;20042;-70
2023/06/11 00:23:00;;;;;;;8.70;4.15;;;15.90;99.90;;;;;;4127349;28;20046;-62
2023/06/11 00:25:01;;;;;;;7.50;5.20;;;15.80;99.90;;;;;;4129242;28;20038;-63
2023/06/11 00:27:03;;;;;;;8.50;4.70;;;15.80;99.90;;;;;;4129503;28;20435;-65
2023/06/11 00:29:04;;;;;;;9.07;4.70;;;15.70;99.90;;;;;;4128834;28;20034;-62
2023/06/11 00:31:05;;;;;;;5.50;3.88;;;15.70;99.90;;;;;;4129748;28;20073;-62
2023/06/11 00:33:06;;;;;;;6.10;3.97;;;15.60;99.90;;;;;;4128592;28;20152;-61
2023/06/11 00:35:08;;;;;;;5.70;4.35;;;15.70;99.90;;;;;;4129813;28;20073;-63
2023/06/11 00:37:11;;;;;;;6.32;4.38;;;15.60;99.90;;;;;;4126522;28;20101;-68
2023/06/11 00:39:12;;;;;;;10.88;5.32;;;15.70;99.90;;;;;;4129944;28;20474;-61
2023/06/11 00:41:15;;;;;;;7.18;4.40;;;15.60;99.90;;;;;;4128222;28;20099;-61
2023/06/11 00:43:17;;;;;;;6.60;4.57;;;15.60;99.90;;;;;;4129828;28;20022;-69
2023/06/11 00:45:18;;;;;;;6.15;4.97;;;15.60;99.90;;;;;;4128602;28;20356;-70
2023/06/11 00:47:19;;;;;;;7.30;4.18;;;15.50;99.90;;;;;;4129670;28;20426;-68
2023/06/11 00:49:21;;;;;;;6.68;4.50;;;15.50;99.90;;;;;;4142811;28;20470;-63
2023/06/11 00:51:24;;;;;;;7.80;5.30;;;15.50;99.90;;;;;;4129252;28;20434;-62
2023/06/11 00:53:25;;;;;;;9.40;4.32;;;15.50;99.90;;;;;;4128576;28;20026;-62
2023/06/11 00:55:27;;;;;;;6.82;3.80;;;15.50;99.90;;;;;;4128887;28;20085;-61
2023/06/11 00:57:28;;;;;;;6.68;3.80;;;15.50;99.90;;;;;;4128816;28;20097;-68
2023/06/11 00:59:33;;;;;;;10.45;3.92;;;15.50;99.90;;;;;;4128481;28;20418;-67
2023/06/11 01:01:41;;;;;;;4.30;3.30;;;15.50;99.90;;;;;;4129226;28;20034;-62
2023/06/11 01:03:43;;;;;;;4.68;3.33;;;15.50;99.90;;;;;;4142214;28;20030;-63
2023/06/11 01:06:02;;;;;;;7.80;3.72;;;15.60;99.90;;;;;;4129380;28;20096;-62
2023/06/11 01:08:07;;;;;;;3.78;3.17;;;15.60;99.90;;;;;;4127973;28;20621;-61
2023/06/11 01:10:08;;;;;;;5.80;3.47;;;15.60;99.90;;;;;;4143926;28;20021;-65
2023/06/11 01:12:10;;;;;;;7.47;3.40;;;15.60;99.90;;;;;;4127326;28;20026;-63
2023/06/11 01:14:13;;;;;;;5.57;3.63;;;15.60;99.90;;;;;;4129236;28;20427;-63
2023/06/11 01:16:36;;;;;;;4.53;3.00;;;15.60;99.90;;;;;;4128002;28;20695;-63
2023/06/11 01:19:03;;;;;;;9.07;3.50;;;15.60;99.90;;;;;;4127562;28;20101;-62
2023/06/11 01:21:17;;;;;;;6.35;3.42;;;15.60;99.90;;;;;;4128533;28;20022;-62
2023/06/11 01:23:41;;;;;;;5.00;2.63;;;15.60;99.90;;;;;;4128750;28;20023;-62
2023/06/11 01:26:20;;;;;;;5.07;3.17;;;15.50;99.90;;;;;;4128686;28;20128;-63
2023/06/11 01:28:27;;;;;;;9.32;3.83;;;15.50;99.90;;;;;;4128091;28;20081;-64
2023/06/11 01:30:30;;;;;;;9.63;3.47;;;15.50;99.90;;;;;;4143240;28;20046;-63
2023/06/11 01:32:32;;;;;;;7.57;3.47;;;15.50;99.90;;;;;;4127387;28;20499;-63
2023/06/11 01:34:33;;;;;;;6.10;3.42;;;15.50;99.90;;;;;;4128733;28;20022;-63
2023/06/11 01:36:36;;;;;;;5.82;3.33;;;15.50;99.90;;;;;;4128262;28;20030;-62
2023/06/11 01:38:45;;;;;;;6.78;3.67;;;15.50;99.90;;;;;;4128444;28;20022;-65
2023/06/11 01:40:46;;;;;;;3.78;3.40;;;15.40;99.90;;;;;;4128236;28;20476;-63
2023/06/11 01:42:47;;;;;;;4.57;3.30;;;15.40;99.90;;;;;;4128127;28;20493;-62
2023/06/11 01:44:48;;;;;;;7.15;3.25;;;15.40;99.90;;;;;;4128573;28;20101;-62
2023/06/11 01:46:49;;;;;;;4.32;2.97;;;15.30;99.90;;;;;;4127925;28;20038;-63
2023/06/11 01:48:51;;;;;;;5.47;3.35;;;15.30;99.90;;;;;;4128756;28;20034;-62
2023/06/11 01:50:52;;;;;;;7.63;3.55;;;15.30;99.90;;;;;;4128352;28;20364;-65
2023/06/11 01:52:53;;;;;;;4.70;2.97;;;15.20;99.90;;;;;;4129036;28;20030;-65
2023/06/11 01:54:54;;;;;;;7.60;3.47;;;15.20;99.90;;;;;;4127797;28;20027;-62
2023/06/11 01:56:55;;;;;;;5.57;3.03;;;15.20;99.90;;;;;;4143884;28;20064;-63
2023/06/11 01:58:57;;;;;;;4.22;2.92;;;15.10;99.90;;;;;;4127797;28;20085;-63
2023/06/11 02:00:59;;;;;;;5.20;3.33;;;15.10;99.90;;;;;;4129027;28;20027;-63
2023/06/11 02:03:02;;;;;;;5.18;3.33;;;15.10;99.90;;;;;;4127917;28;20077;-63
2023/06/11 02:05:04;;;;;;;3.97;3.42;;;15.10;99.90;;;;;;4143584;28;20076;-65
2023/06/11 02:07:05;;;;;;;3.65;3.20;;;15.10;99.90;;;;;;4141887;28;20026;-60
2023/06/11 02:09:06;;;;;;;3.88;3.47;;;15.00;99.90;;;;;;4128290;28;20054;-62
2023/06/11 02:11:10;;;;;;;4.47;2.88;;;15.00;99.90;;;;;;4128245;28;20100;-61
2023/06/11 02:13:11;;;;;;;5.50;3.33;;;14.90;99.90;;;;;;4128114;28;20434;-62
2023/06/11 02:15:12;;;;;;;5.75;3.58;;;15.00;99.90;;;;;;4128555;28;20042;-61
2023/06/11 02:17:14;;;;;;;4.63;3.40;;;15.00;99.90;;;;;;4127160;28;20050;-61
2023/06/11 02:19:15;;;;;;;4.93;2.95;;;14.90;99.90;;;;;;4128893;28;20085;-62
2023/06/11 02:21:16;;;;;;;5.50;3.05;;;14.90;99.90;;;;;;4127669;28;20443;-62
2023/06/11 02:23:17;;;;;;;5.95;3.22;;;14.90;99.90;;;;;;4127107;28;20096;-61
2023/06/11 02:25:18;;;;;;;3.80;3.10;;;14.90;99.90;;;;;;4130501;28;20085;-62
2023/06/11 02:27:20;;;;;;;5.00;3.45;;;14.80;99.90;;;;;;4131767;28;20116;-62
2023/06/11 02:29:21;;;;;;;6.53;3.28;;;14.70;99.90;;;;;;4144990;28;20450;-63
2023/06/11 02:31:22;;;;;;;4.43;3.10;;;14.70;99.90;;;;;;4131799;28;20030;-64
2023/06/11 02:33:23;;;;;;;5.50;2.72;;;14.70;99.90;;;;;;4130545;28;20077;-61
2023/06/11 02:35:24;;;;;;;5.35;3.80;;;14.70;99.90;;;;;;4131415;28;20364;-63
2023/06/11 02:37:25;;;;;;;4.60;3.28;;;14.80;99.90;;;;;;4130318;28;20046;-62
2023/06/11 02:39:26;;;;;;;3.60;2.95;;;14.80;99.90;;;;;;4131036;28;20038;-61
2023/06/11 02:41:27;;;;;;;5.53;2.92;;;14.80;99.90;;;;;;4130893;28;20022;-62
2023/06/11 02:43:29;;;;;;;7.18;3.10;;;14.80;99.90;;;;;;4130570;28;20030;-63
2023/06/11 02:45:30;;;;;;;6.68;3.00;;;14.80;99.90;;;;;;4131054;28;20565;-62
2023/06/11 02:47:31;;;;;;;6.75;3.05;;;14.80;99.90;;;;;;4130208;28;20105;-61
2023/06/11 02:49:32;;;;;;;4.20;3.03;;;14.80;99.90;;;;;;4131577;28;20088;-64
2023/06/11 02:51:33;;;;;;;4.10;3.65;;;14.90;99.90;;;;;;4130193;28;20082;-62
2023/06/11 02:53:35;;;;;;;6.80;3.35;;;14.90;99.90;;;;;;4130871;28;20038;-61
2023/06/11 02:55:36;;;;;;;5.20;2.83;;;15.00;99.90;;;;;;4130014;28;20557;-61
2023/06/11 02:57:37;;;;;;;5.93;2.60;;;15.00;99.90;;;;;;4131258;28;20435;-61
2023/06/11 02:59:39;;;;;;;5.97;3.13;;;15.10;99.90;;;;;;4130074;28;20084;-62
2023/06/11 03:01:40;;;;;;;3.05;2.70;;;15.10;99.90;;;;;;4131251;28;20030;-62
2023/06/11 03:03:41;;;;;;;6.00;2.85;;;15.20;99.90;;;;;;4129997;28;20035;-62
2023/06/11 03:05:43;;;;;;;5.28;2.58;;;15.20;99.90;;;;;;4130957;28;20046;-62
2023/06/11 03:07:44;;;;;;;4.03;2.90;;;15.20;99.90;;;;;;4129712;28;20030;-62
2023/06/11 03:09:45;;;;;;;3.42;2.63;;;15.30;99.90;;;;;;4130301;28;20101;-62
2023/06/11 03:11:46;;;;;;;4.13;2.85;;;15.50;99.90;;;;;;4129990;28;20034;-63
2023/06/11 03:13:47;;;;;;;3.78;2.63;;;15.80;99.90;;;;;;4130181;28;20042;-65
2023/06/11 03:15:48;;;;;;;5.38;3.05;;;16.10;99.90;;;;;;4130598;28;20089;-66
2023/06/11 03:17:49;;;;;;;3.38;2.72;;;16.40;99.90;;;;;;4127861;28;20442;-70
2023/06/11 03:19:51;;;;;;;6.00;2.75;;;16.70;99.90;;;;;;4131123;28;20585;-70
2023/06/11 03:21:52;;;;;;;3.15;2.30;;;17.00;99.90;;;;;;4127535;28;20081;-69
2023/06/11 03:23:53;;;;;;;5.47;2.60;;;17.30;99.90;;;;;;4130916;28;20038;-68
2023/06/11 03:25:54;;;;;;;3.70;2.67;;;17.60;99.90;;;;;;4129668;28;20427;-69
2023/06/11 03:27:55;;;;;;;4.38;2.42;;;18.00;99.90;;;;;;4130915;28;20022;-61
2023/06/11 03:29:57;;;;;;;6.68;2.10;;;18.30;99.90;;;;;;4129409;28;20026;-61
2023/06/11 03:31:58;;;;;;;3.83;2.50;;;18.70;99.90;;;;;;4130726;28;20538;-62
2023/06/11 03:34:00;;;;;;;4.07;2.55;;;19.00;99.90;;;;;;4128631;28;20081;-63
2023/06/11 03:36:02;;;;;;;4.07;2.67;;;19.30;99.90;;;;;;4129699;28;20080;-62
2023/06/11 03:38:03;;;;;;;3.47;2.30;;;19.60;99.90;;;;;;4129124;28;20113;-63
2023/06/11 03:40:05;;;;;;;9.43;2.45;;;19.70;99.90;;;;;;4130329;28;20109;-62
2023/06/11 03:42:06;;;;;;;3.65;2.20;;;20.00;99.90;;;;;;4129484;28;20038;-64
2023/06/11 03:44:07;;;;;;;4.38;2.55;;;20.30;99.90;;;;;;4129394;28;20034;-62
2023/06/11 03:46:08;;;;;;;3.47;2.08;;;20.50;99.90;;;;;;4129975;28;20018;-62
2023/06/11 03:48:09;;;;;;;5.97;2.20;;;20.60;99.90;;;;;;4128943;28;20034;-61
2023/06/11 03:50:12;;;;;;;6.82;2.33;;;20.70;99.90;;;;;;4130678;28;20031;-62
2023/06/11 03:52:13;;;;;;;3.58;2.55;;;20.90;99.90;;;;;;4129136;28;20018;-61
2023/06/11 03:54:14;;;;;;;3.70;2.30;;;21.10;99.90;;;;;;4130323;28;20486;-62
2023/06/11 03:56:15;;;;;;;2.35;1.88;;;21.30;99.90;;;;;;4128713;28;20088;-62
2023/06/11 03:58:16;;;;;;;4.03;2.28;;;21.60;99.90;;;;;;4130219;28;20092;-62
2023/06/11 04:00:17;;;;;;;5.22;2.38;;;21.60;99.90;;;;;;4128674;28;20040;-62
2023/06/11 04:02:19;;;;;;;2.15;1.88;;;21.80;99.90;;;;;;4130264;28;20042;-62
2023/06/11 04:04:20;;;;;;;3.22;1.95;;;21.70;99.90;;;;;;4128464;28;20042;-63
2023/06/11 04:06:21;;;;;;;2.40;2.10;;;21.80;99.90;;;;;;4130217;28;20030;-62
2023/06/11 04:08:22;;;;;;;9.00;2.45;;;22.00;99.90;;;;;;4128636;28;20046;-62
2023/06/11 04:10:23;;;;;;;9.88;2.83;;;22.40;99.90;;;;;;4129637;28;20152;-62
2023/06/11 04:12:26;;;;;;;7.18;2.72;;;22.90;99.90;;;;;;4128664;28;20430;-61
2023/06/11 04:14:27;;;;;;;4.13;2.30;;;23.30;99.90;;;;;;4129433;28;20353;-61
2023/06/11 04:16:28;;;;;;;2.83;1.95;;;23.60;99.90;;;;;;4129390;28;20073;-62
2023/06/11 04:18:29;;;;;;;5.32;2.50;;;24.00;99.90;;;;;;4128478;28;20073;-63
2023/06/11 04:20:31;;;;;;;4.47;2.40;;;24.20;99.90;;;;;;4130175;28;20419;-61
2023/06/11 04:22:32;;;;;;;3.08;1.90;;;24.50;99.90;;;;;;4128138;28;20038;-61
2023/06/11 04:24:33;;;;;;;4.93;1.83;;;24.70;99.90;;;;;;4128080;28;20061;-63
2023/06/11 04:26:36;;;;;;;5.57;1.90;;;24.80;99.90;;;;;;4128836;28;20050;-62
2023/06/11 04:28:37;;;;;;;3.42;2.10;;;25.00;99.90;;;;;;4129105;28;20054;-62
2023/06/11 04:30:39;;;;;;;2.50;1.95;;;25.20;99.90;;;;;;4128601;28;20034;-63
2023/06/11 04:32:41;;;;;;;5.00;1.90;;;25.30;99.90;;;;;;4129626;28;20096;-62
2023/06/11 04:34:43;;;;;;;4.85;2.33;;;25.30;99.90;;;;;;4128585;28;20085;-62
2023/06/11 04:36:44;;;;;;;3.05;1.92;;;25.40;99.90;;;;;;4127923;28;20549;-62
2023/06/11 04:38:48;;;;;;;3.95;1.75;;;25.40;99.90;;;;;;4128520;28;20438;-62
2023/06/11 04:40:49;;;;;;;3.95;2.38;;;25.40;99.90;;;;;;4129587;28;20077;-63
2023/06/11 04:42:50;;;;;;;2.58;2.13;;;25.40;99.90;;;;;;4128568;28;20430;-65
2023/06/11 04:44:52;;;;;;;4.75;2.00;;;25.30;99.90;;;;;;4129072;28;20026;-65
2023/06/11 04:46:57;;;;;;;2.08;1.88;;;25.60;99.90;;;;;;4128139;28;20042;-63
2023/06/11 04:49:06;;;;;;;4.47;2.05;;;26.00;99.40;;;;;;4128762;28;20419;-63
2023/06/11 04:51:11;;;;;;;4.25;1.90;;;26.30;99.00;;;;;;4129329;28;20073;-65
2023/06/11 04:53:12;;;;;;;3.33;2.03;;;26.70;98.70;;;;;;4128099;28;20046;-64
2023/06/11 04:55:13;;;;;;;2.97;1.80;;;26.90;98.00;;;;;;4128303;28;20119;-62
2023/06/11 04:57:15;;;;;;;3.58;2.50;;;27.00;97.70;;;;;;4128217;28;20423;-63
2023/06/11 04:59:16;;;;;;;1.80;1.63;;;27.10;97.40;;;;;;4128770;28;20145;-68
2023/06/11 05:01:17;;;;;;;3.97;1.77;;;27.00;97.20;;;;;;4127781;28;20775;-61
2023/06/11 05:03:21;;;;;;;3.42;2.20;;;27.40;96.90;;;;;;4129330;28;20030;-62
2023/06/11 05:05:22;;;;;;;4.40;1.90;;;27.60;96.30;;;;;;4143035;28;20030;-65
2023/06/11 05:07:23;;;;;;;5.30;2.00;;;27.70;95.90;;;;;;4129098;28;20054;-64
2023/06/11 05:09:25;;;;;;;3.42;2.00;;;27.70;95.70;;;;;;4127540;28;20467;-63
2023/06/11 05:11:26;;;;;;;3.83;1.98;;;27.60;95.50;;;;;;4129383;28;20022;-63
2023/06/11 05:13:27;;;;;;;4.38;1.80;;;27.60;95.50;;;;;;4127780;28;20030;-64
2023/06/11 05:15:29;;;;;;;1.80;1.60;;;27.80;95.20;;;;;;4129044;28;20077;-70
2023/06/11 05:17:32;;;;;;;4.78;1.83;;;27.80;95.10;;;;;;4127603;28;20392;-62
2023/06/11 05:19:33;;;;;;;3.33;2.00;;;27.70;94.90;;;;;;4142609;28;20449;-65
2023/06/11 05:21:36;;;;;;;2.42;1.52;;;27.70;95.00;;;;;;4128631;28;20042;-65
2023/06/11 05:23:39;;;;;;;2.78;2.03;;;28.10;94.50;;;;;;4128419;28;20026;-66
2023/06/11 05:25:46;;;;;;;1.95;1.77;;;28.10;94.00;;;;;;4127885;28;20507;-67
2023/06/11 05:27:47;;;;;;;3.78;2.17;;;28.20;93.90;;;;;;4128161;28;20065;-67
2023/06/11 05:29:48;;;;;;;3.97;1.80;;;28.30;93.90;;;;;;4128564;28;20026;-69
2023/06/11 05:31:50;;;;;;;4.40;2.00;;;28.50;93.50;;;;;;4127433;28;20422;-65
2023/06/11 05:33:51;;;;;;;2.35;2.15;;;28.50;93.20;;;;;;4128856;28;20473;-64
2023/06/11 05:35:52;;;;;;;3.85;2.00;;;28.60;93.20;;;;;;4127811;28;20042;-62
2023/06/11 05:37:55;;;;;;;4.25;2.25;;;29.00;92.80;;;;;;4128853;28;20434;-63
2023/06/11 05:39:56;;;;;;;3.53;2.20;;;29.20;92.40;;;;;;4125866;28;20133;-62
2023/06/11 05:41:57;;;;;;;3.42;2.00;;;29.40;92.00;;;;;;4128977;28;20030;-63
2023/06/11 05:43:58;;;;;;;4.75;2.40;;;29.00;91.90;;;;;;4127897;28;20096;-63
2023/06/11 05:45:59;;;;;;;3.15;2.25;;;29.10;92.00;;;;;;4128994;28;20026;-62
2023/06/11 05:48:01;;;;;;;2.60;2.40;;;29.20;91.80;;;;;;4127905;28;20034;-62
2023/06/11 05:50:02;;;;;;;3.20;2.08;;;28.90;91.60;;;;;;4128943;28;20146;-63
2023/06/11 05:52:03;;;;;;;6.82;2.88;;;27.50;92.30;;;;;;4128115;28;20030;-62
2023/06/11 05:54:05;;;;;;;4.80;2.30;;;26.50;93.30;;;;;;4128283;28;20131;-63
2023/06/11 05:56:06;;;;;;;3.00;2.25;;;26.00;94.10;;;;;;4128257;28;20026;-63
2023/06/11 05:58:07;;;;;;;4.53;2.40;;;26.20;94.30;;;;;;4128011;28;20038;-64
2023/06/11 06:00:15;;;;;;;4.15;2.38;;;25.80;94.40;;;;;;4131695;28;20069;-62
2023/06/11 06:02:16;;;;;;;7.85;2.95;;;25.50;94.80;;;;;;4130741;28;20483;-61
2023/06/11 06:04:17;;;;;;;3.78;2.45;;;25.10;95.20;;;;;;4131636;28;20446;-63
2023/06/11 06:06:18;;;;;;;5.32;2.53;;;24.60;95.90;;;;;;4130677;28;20022;-63
2023/06/11 06:08:20;;;;;;;4.13;2.70;;;24.10;96.90;;;;;;4131021;28;20054;-62
2023/06/11 06:10:21;;;;;;;6.57;2.70;;;24.00;97.40;;;;;;4130213;28;20042;-70
2023/06/11 06:12:22;;;;;;;5.18;2.95;;;23.80;97.50;;;;;;4131370;28;20486;-63
2023/06/11 06:14:23;;;;;;;5.18;2.40;;;23.60;98.30;;;;;;4130474;28;20085;-71
2023/06/11 06:16:24;;;;;;;4.65;2.42;;;23.60;98.70;;;;;;4131726;28;20042;-69
2023/06/11 06:18:27;;;;;;;5.50;2.92;;;23.50;98.80;;;;;;4129996;28;20105;-64
2023/06/11 06:20:28;;;;;;;4.40;2.67;;;23.40;98.80;;;;;;4131864;28;20077;-70
2023/06/11 06:22:29;;;;;;;3.03;2.63;;;23.40;99.20;;;;;;4130381;28;20038;-62
2023/06/11 06:24:31;;;;;;;6.05;2.80;;;23.40;99.50;;;;;;4130723;28;20038;-63
2023/06/11 06:26:32;;;;;;;3.97;2.90;;;23.50;99.80;;;;;;4130381;28;20035;-62
2023/06/11 06:28:35;;;;;;;2.85;2.58;;;23.30;99.90;;;;;;4130718;28;20030;-63
2023/06/11 06:30:38;;;;;;;6.70;3.50;;;23.60;99.90;;;;;;4130806;28;20434;-66
2023/06/11 06:32:39;;;;;;;3.95;2.80;;;23.80;99.80;;;;;;4129973;28;20050;-63
2023/06/11 06:34:41;;;;;;;5.15;2.95;;;23.70;99.90;;;;;;4130796;28;20081;-62
2023/06/11 06:36:42;;;;;;;6.05;3.17;;;23.90;99.80;;;;;;4130048;28;20085;-62
2023/06/11 06:38:44;;;;;;;4.85;3.40;;;23.80;99.90;;;;;;4130739;28;20101;-62
2023/06/11 06:40:45;;;;;;;4.13;2.78;;;23.90;99.90;;;;;;4130072;28;20022;-64
2023/06/11 06:42:46;;;;;;;4.35;2.70;;;23.80;99.80;;;;;;4131125;28;20088;-63
2023/06/11 06:44:48;;;;;;;5.45;2.78;;;23.90;99.90;;;;;;4129950;28;20463;-63
2023/06/11 06:46:49;;;;;;;6.65;2.88;;;24.10;99.80;;;;;;4131062;28;20457;-64
2023/06/11 06:48:51;;;;;;;5.18;2.78;;;24.00;99.90;;;;;;4129963;28;20092;-64
2023/06/11 06:50:52;;;;;;;6.57;2.65;;;24.00;99.90;;;;;;4131542;28;20419;-63
2023/06/11 06:52:53;;;;;;;8.18;3.45;;;23.90;99.90;;;;;;4129467;28;20098;-66
2023/06/11 06:54:55;;;;;;;5.43;3.00;;;23.70;99.90;;;;;;4130724;28;20027;-68
2023/06/11 06:56:56;;;;;;;8.32;3.28;;;23.70;99.90;;;;;;4129652;28;20039;-63
2023/06/11 06:58:57;;;;;;;4.65;3.10;;;23.40;99.90;;;;;;4130599;28;20046;-67
2023/06/11 07:00:58;;;;;;;4.15;3.00;;;23.40;99.90;;;;;;4130252;28;20041;-62
2023/06/11 07:02:59;;;;;;;5.18;3.80;;;23.60;99.90;;;;;;4130056;28;20027;-62
2023/06/11 07:05:01;;;;;;;5.93;3.05;;;23.50;99.90;;;;;;4130212;28;20454;-63
2023/06/11 07:07:02;;;;;;;3.88;2.47;;;23.40;99.90;;;;;;4129760;28;20467;-66
2023/06/11 07:09:03;;;;;;;5.22;3.08;;;23.30;99.90;;;;;;4130144;28;20540;-66
2023/06/11 07:11:05;;;;;;;5.85;3.00;;;23.00;99.90;;;;;;4129628;28;20022;-66
2023/06/11 07:13:10;;;;;;;3.78;3.00;;;23.10;99.90;;;;;;4130886;28;20364;-61
2023/06/11 07:15:11;;;;;;;3.90;2.97;;;23.00;99.90;;;;;;4129462;28;20042;-59
2023/06/11 07:17:13;;;;;;;7.00;3.58;;;23.30;99.90;;;;;;4130504;28;20096;-64
2023/06/11 07:19:14;;;;;;;5.03;3.00;;;23.30;99.90;;;;;;4129632;28;20097;-62
2023/06/11 07:21:17;;;;;;;5.22;2.83;;;23.50;99.90;;;;;;4131076;28;20042;-63
2023/06/11 07:23:18;;;;;;;7.75;2.90;;;23.50;99.90;;;;;;4129211;28;20038;-63
2023/06/11 07:25:19;;;;;;;8.05;2.80;;;23.40;99.90;;;;;;4130087;28;20077;-63
2023/06/11 07:27:20;;;;;;;3.97;3.13;;;23.40;99.90;;;;;;4129562;28;20073;-63
2023/06/11 07:29:21;;;;;;;6.38;3.40;;;23.40;99.90;;;;;;4129273;28;20034;-62
2023/06/11 07:31:22;;;;;;;4.90;2.70;;;23.60;99.90;;;;;;4129769;28;20084;-67
2023/06/11 07:33:23;;;;;;;3.80;2.95;;;23.80;99.90;;;;;;4129200;28;20100;-70
2023/06/11 07:35:26;;;;;;;5.00;3.20;;;23.80;99.90;;;;;;4129928;28;20030;-67
2023/06/11 07:37:27;;;;;;;4.57;3.13;;;23.90;99.90;;;;;;4129071;28;20403;-63
2023/06/11 07:39:28;;;;;;;4.25;3.38;;;24.00;99.90;;;;;;4129829;28;20108;-62
2023/06/11 07:41:30;;;;;;;3.40;3.08;;;23.80;99.90;;;;;;4129074;28;20035;-62
2023/06/11 07:43:31;;;;;;;6.60;3.33;;;23.90;99.90;;;;;;4130128;28;20438;-62
2023/06/11 07:45:32;;;;;;;3.75;3.15;;;24.10;99.90;;;;;;4129072;28;20061;-62
2023/06/11 07:47:33;;;;;;;3.42;2.67;;;24.30;99.90;;;;;;4130095;28;20097;-62
2023/06/11 07:49:35;;;;;;;5.15;2.95;;;24.30;99.90;;;;;;4128446;28;20104;-68
2023/06/11 07:51:36;;;;;;;8.07;3.40;;;24.30;99.90;;;;;;4129740;28;20042;-65
2023/06/11 07:53:37;;;;;;;5.40;3.22;;;24.50;99.90;;;;;;4128953;28;20026;-62
2023/06/11 07:55:38;;;;;;;7.47;3.50;;;24.40;99.90;;;;;;4130042;28;20284;-66
2023/06/11 07:57:40;;;;;;;4.32;2.75;;;24.00;99.90;;;;;;4128435;28;20098;-66
2023/06/11 07:59:43;;;;;;;4.00;2.50;;;24.10;99.90;;;;;;4129457;28;20046;-64
2023/06/11 08:01:44;;;;;;;4.28;3.10;;;24.10;99.90;;;;;;4128694;28;20109;-62
2023/06/11 08:03:45;;;;;;;4.25;3.05;;;24.20;99.90;;;;;;4128704;28;20050;-62
2023/06/11 08:05:46;;;;;;;3.28;2.97;;;24.50;99.90;;;;;;4128916;28;20042;-62
2023/06/11 08:07:48;;;;;;;8.05;3.05;;;24.70;99.90;;;;;;4128453;28;20038;-64
2023/06/11 08:09:50;;;;;;;3.70;2.60;;;24.70;99.90;;;;;;4144602;28;20029;-67
2023/06/11 08:11:51;;;;;;;4.63;3.13;;;24.60;99.90;;;;;;4128341;28;20034;-65
2023/06/11 08:13:52;;;;;;;4.28;2.78;;;24.30;99.90;;;;;;4129803;28;20085;-62
2023/06/11 08:15:54;;;;;;;5.35;2.85;;;24.10;99.90;;;;;;4143175;28;20037;-62
2023/06/11 08:17:55;;;;;;;4.60;3.33;;;24.20;99.90;;;;;;4129573;28;20069;-62
2023/06/11 08:19:56;;;;;;;5.68;3.55;;;24.00;99.90;;;;;;4127979;28;20097;-63
2023/06/11 08:22:00;;;;;;;5.45;2.78;;;24.00;99.90;;;;;;4129418;28;20053;-61
2023/06/11 08:24:01;;;;;;;4.93;2.80;;;24.30;99.90;;;;;;4128006;28;20085;-63
2023/06/11 08:26:02;;;;;;;6.30;2.72;;;24.30;99.90;;;;;;4128808;28;20450;-64
2023/06/11 08:28:04;;;;;;;3.28;2.75;;;24.30;99.90;;;;;;4128298;28;20114;-61
2023/06/11 08:30:06;;;;;;;6.60;3.25;;;24.60;99.90;;;;;;4128949;28;20026;-61
2023/06/11 08:32:08;;;;;;;6.05;2.70;;;24.70;99.90;;;;;;4128333;28;20030;-62
2023/06/11 08:34:09;;;;;;;4.82;3.03;;;24.60;99.90;;;;;;4128321;28;20037;-62
2023/06/11 08:36:10;;;;;;;4.07;2.70;;;24.60;99.90;;;;;;4128741;28;20379;-62
2023/06/11 08:38:11;;;;;;;4.07;3.15;;;24.70;99.90;;;;;;4127918;28;20466;-67
2023/06/11 08:40:13;;;;;;;4.55;2.55;;;24.90;99.90;;;;;;4128665;28;20434;-63
2023/06/11 08:42:14;;;;;;;3.63;2.67;;;24.90;99.90;;;;;;4127766;28;20080;-66
2023/06/11 08:44:15;;;;;;;9.57;3.17;;;24.80;99.90;;;;;;4143692;28;20522;-62
2023/06/11 08:46:20;;;;;;;4.00;2.92;;;24.80;99.90;;;;;;4125985;28;20109;-63
2023/06/11 08:48:27;;;;;;;7.20;2.97;;;24.80;99.90;;;;;;4128780;28;20030;-62
2023/06/11 08:50:31;;;;;;;4.30;2.80;;;25.00;99.90;;;;;;4127845;28;20069;-62
2023/06/11 08:52:35;;;;;;;3.67;2.72;;;25.00;99.90;;;;;;4128700;28;20438;-62
2023/06/11 08:54:36;;;;;;;8.15;2.50;;;25.20;99.90;;;;;;4127089;28;20487;-63
2023/06/11 08:56:38;;;;;;;4.88;2.95;;;25.10;99.80;;;;;;4128649;28;20072;-61
2023/06/11 08:58:40;;;;;;;4.90;2.92;;;25.30;99.80;;;;;;4127144;28;20105;-63
2023/06/11 09:00:41;;;;;;;2.72;2.47;;;25.00;99.90;;;;;;4142957;28;20084;-66
2023/06/11 09:02:43;;;;;;;7.93;2.80;;;24.80;99.90;;;;;;4127514;28;20030;-70
2023/06/11 09:04:44;;;;;;;5.13;2.65;;;24.70;99.90;;;;;;4126719;28;20830;-64
2023/06/11 09:06:56;;;;;;;4.88;2.95;;;24.60;99.90;;;;;;4127740;28;20068;-64
2023/06/11 09:09:05;;;;;;;4.32;3.42;;;24.70;99.90;;;;;;4127796;28;20376;-63
2023/06/11 09:11:06;;;;;;;5.00;2.45;;;24.90;99.90;;;;;;4127436;28;20038;-63
2023/06/11 09:13:08;;;;;;;3.83;2.65;;;25.00;99.90;;;;;;4128080;28;20027;-64
2023/06/11 09:15:10;;;;;;;5.28;2.70;;;24.90;99.90;;;;;;4128239;28;20035;-70
2023/06/11 09:17:15;;;;;;;10.95;3.50;;;24.80;99.90;;;;;;4127521;28;20034;-67
2023/06/11 09:19:19;;;;;;;4.28;2.92;;;24.80;99.90;;;;;;4127638;28;20491;-66
2023/06/11 09:21:23;;;;;;;3.60;2.55;;;24.60;99.90;;;;;;4127917;28;20034;-69
2023/06/11 09:23:37;;;;;;;3.92;2.88;;;24.60;99.90;;;;;;4128348;28;20038;-70
2023/06/11 09:25:38;;;;;;;3.60;2.45;;;24.70;99.90;;;;;;4127757;28;20026;-68
2023/06/11 09:27:40;;;;;;;4.63;2.72;;;24.50;99.90;;;;;;4128310;28;20034;-63
2023/06/11 09:29:44;;;;;;;3.22;2.45;;;24.30;99.90;;;;;;4127419;28;20435;-64
2023/06/11 09:31:45;;;;;;;3.97;2.40;;;24.40;99.90;;;;;;4127931;28;20089;-62
2023/06/11 09:33:46;;;;;;;5.43;2.75;;;24.40;99.90;;;;;;4128407;28;20035;-70
2023/06/11 09:35:48;;;;;;;4.28;3.35;;;24.50;99.90;;;;;;4131266;28;20053;-63
2023/06/11 09:37:51;;;;;;;4.93;2.97;;;24.60;99.90;;;;;;4130413;28;20030;-67
2023/06/11 09:39:52;;;;;;;3.92;2.65;;;24.60;99.90;;;;;;4131560;28;20136;-62
2023/06/11 09:41:54;;;;;;;5.22;2.53;;;24.70;99.90;;;;;;4130784;28;20545;-62
2023/06/11 09:43:56;;;;;;;10.80;2.80;;;24.80;99.90;;;;;;4131721;28;20093;-63
2023/06/11 09:45:57;;;;;;;3.47;2.70;;;25.00;99.90;;;;;;4130965;28;20157;-63
2023/06/11 09:47:59;;;;;;;4.95;2.30;;;25.00;99.70;;;;;;4131444;28;20487;-61
2023/06/11 09:50:02;;;;;;;4.53;2.67;;;24.90;99.70;;;;;;4130589;28;20042;-63
2023/06/11 09:52:03;;;;;;;3.63;2.70;;;24.80;99.70;;;;;;4131659;28;20475;-68
2023/06/11 09:54:07;;;;;;;3.53;2.63;;;24.60;99.80;;;;;;4131421;28;20092;-62
2023/06/11 09:56:09;;;;;;;4.20;2.90;;;24.60;99.90;;;;;;4131263;28;20092;-63
2023/06/11 09:58:12;;;;;;;2.92;2.60;;;24.80;99.90;;;;;;4131491;28;20076;-63
2023/06/11 10:00:14;;;;;;;4.05;2.53;;;25.00;99.80;;;;;;4130699;28;20038;-69
2023/06/11 10:02:15;;;;;;;5.80;2.75;;;25.10;99.20;;;;;;4131440;28;20487;-65
2023/06/11 10:04:16;;;;;;;3.97;2.35;;;25.20;99.10;;;;;;4130703;28;20073;-62
2023/06/11 10:06:22;;;;;;;4.70;3.03;;;25.20;99.00;;;;;;4131723;28;20030;-64
2023/06/11 10:08:27;;;;;;;5.28;2.75;;;25.30;99.10;;;;;;4129989;28;20042;-68
2023/06/11 10:10:30;;;;;;;4.65;2.88;;;25.40;98.90;;;;;;4130465;28;20030;-64
2023/06/11 10:12:33;;;;;;;8.85;2.78;;;25.40;98.60;;;;;;4129179;28;20174;-61
2023/06/11 10:14:36;;;;;;;4.32;2.83;;;25.30;98.60;;;;;;4130511;28;20085;-62
2023/06/11 10:16:38;;;;;;;4.80;2.80;;;25.20;98.60;;;;;;4129479;28;20109;-68
2023/06/11 10:18:39;;;;;;;4.45;2.50;;;25.20;98.60;;;;;;4130287;28;20463;-62
2023/06/11 10:20:55;;;;;;;4.10;2.80;;;25.10;98.90;;;;;;4129310;28;20030;-63
2023/06/11 10:23:03;;;;;;;8.75;3.00;;;25.10;99.00;;;;;;4130730;28;20034;-63
2023/06/11 10:25:05;;;;;;;7.03;2.85;;;25.10;99.20;;;;;;4129174;28;20561;-66
2023/06/11 10:27:11;;;;;;;4.05;2.47;;;25.10;99.20;;;;;;4130410;28;20038;-64
2023/06/11 10:29:13;;;;;;;4.60;2.72;;;25.30;99.30;;;;;;4129209;28;20158;-63
2023/06/11 10:31:25;;;;;;;6.20;2.80;;;25.50;99.20;;;;;;4129996;28;20042;-64
2023/06/11 10:33:45;;;;;;;8.50;2.95;;;25.60;98.60;;;;;;4129168;28;20022;-67
2023/06/11 10:35:46;;;;;;;5.00;3.08;;;25.40;98.60;;;;;;4130214;28;20360;-63